Dodge, North Dakota
Current Conditions -  °F | °C
As of 10:15 AM on Thursday 27 Nov 2014 (Local Time) from KHZE Reporting Station
Overcast Overcast  
Wind Chill: -2°   Ceiling: 6500
Heat Index: 10°   Visibility: 10mi
Dew Point:   Wind: 9mph
Humidity: 79%   Direction: 170°S
Pressure: 30.18"   Gusts: NA
Location:  47.31°N, 102.2°W
Report Text: KHZE 271715Z AUTO 17008KT 10SM FEW004 OVC065 M12/M15 A3018 RMK AO2
Loading
Personal Weather Stations






























Interactive Weather Map New forecast layout! Learn more

10-Day Weather Forecast

Advertisements
Track Severe Weather on mobile